sensor_id;sensor_type;location;lat;lon;timestamp;pressure;altitude;pressure_sealevel;temperature;humidity
69780;BME280;57052;55.602;38.096;2022-10-16T00:01:47;101620.66;;;7.51;60.88
69780;BME280;57052;55.602;38.096;2022-10-16T00:04:13;101634.94;;;7.52;60.81
69780;BME280;57052;55.602;38.096;2022-10-16T00:06:39;101645.50;;;7.53;60.78
69780;BME280;57052;55.602;38.096;2022-10-16T00:09:06;101636.63;;;7.46;61.47
69780;BME280;57052;55.602;38.096;2022-10-16T00:11:33;101632.31;;;7.39;61.26
69780;BME280;57052;55.602;38.096;2022-10-16T00:14:04;101643.47;;;7.42;61.73
69780;BME280;57052;55.602;38.096;2022-10-16T00:16:31;101650.94;;;7.40;61.35
69780;BME280;57052;55.602;38.096;2022-10-16T00:18:57;101634.22;;;7.25;62.07
69780;BME280;57052;55.602;38.096;2022-10-16T00:21:25;101638.97;;;7.30;61.40
69780;BME280;57052;55.602;38.096;2022-10-16T00:24:10;101650.56;;;7.30;61.87
69780;BME280;57052;55.602;38.096;2022-10-16T00:26:38;101651.00;;;7.27;61.80
69780;BME280;57052;55.602;38.096;2022-10-16T00:29:05;101647.50;;;7.20;62.01
69780;BME280;57052;55.602;38.096;2022-10-16T00:31:31;101642.72;;;7.22;61.70
69780;BME280;57052;55.602;38.096;2022-10-16T00:33:56;101637.38;;;7.09;62.00
69780;BME280;57052;55.602;38.096;2022-10-16T00:36:24;101654.38;;;7.16;61.42
69780;BME280;57052;55.602;38.096;2022-10-16T00:38:51;101651.03;;;7.14;61.57
69780;BME280;57052;55.602;38.096;2022-10-16T00:41:22;101634.53;;;6.97;62.07
69780;BME280;57052;55.602;38.096;2022-10-16T00:43:53;101650.84;;;7.09;62.35
69780;BME280;57052;55.602;38.096;2022-10-16T00:46:19;101646.53;;;7.08;62.02
69780;BME280;57052;55.602;38.096;2022-10-16T00:48:51;101651.28;;;7.06;62.16
69780;BME280;57052;55.602;38.096;2022-10-16T00:51:20;101650.66;;;7.04;61.95
69780;BME280;57052;55.602;38.096;2022-10-16T00:53:47;101652.75;;;7.02;62.67
69780;BME280;57052;55.602;38.096;2022-10-16T00:56:13;101648.22;;;6.96;62.01
69780;BME280;57052;55.602;38.096;2022-10-16T00:58:39;101628.56;;;6.82;62.50
69780;BME280;57052;55.602;38.096;2022-10-16T01:01:04;101648.63;;;6.93;62.21
69780;BME280;57052;55.602;38.096;2022-10-16T01:03:33;101642.25;;;6.81;62.19
69780;BME280;57052;55.602;38.096;2022-10-16T01:08:44;101664.59;;;6.88;62.69
69780;BME280;57052;55.602;38.096;2022-10-16T01:11:22;101657.75;;;6.85;63.24
69780;BME280;57052;55.602;38.096;2022-10-16T01:13:53;101656.13;;;6.78;62.38
69780;BME280;57052;55.602;38.096;2022-10-16T01:16:45;101669.78;;;6.76;62.81
69780;BME280;57052;55.602;38.096;2022-10-16T01:19:28;101669.19;;;6.61;63.74
69780;BME280;57052;55.602;38.096;2022-10-16T01:22:00;101652.81;;;6.63;62.61
69780;BME280;57052;55.602;38.096;2022-10-16T01:24:32;101669.59;;;6.71;62.90
69780;BME280;57052;55.602;38.096;2022-10-16T01:27:25;101672.50;;;6.63;63.71
69780;BME280;57052;55.602;38.096;2022-10-16T01:30:01;101677.66;;;6.65;63.41
69780;BME280;57052;55.602;38.096;2022-10-16T01:32:40;101677.44;;;6.60;62.99
69780;BME280;57052;55.602;38.096;2022-10-16T01:35:15;101685.94;;;6.63;63.39
69780;BME280;57052;55.602;38.096;2022-10-16T01:38:00;101668.34;;;6.47;63.52
69780;BME280;57052;55.602;38.096;2022-10-16T01:40:29;101689.66;;;6.62;63.33
69780;BME280;57052;55.602;38.096;2022-10-16T01:43:20;101678.09;;;6.49;63.96
69780;BME280;57052;55.602;38.096;2022-10-16T01:45:48;101674.16;;;6.51;63.11
69780;BME280;57052;55.602;38.096;2022-10-16T01:48:17;101692.16;;;6.57;63.61
69780;BME280;57052;55.602;38.096;2022-10-16T01:50:48;101688.00;;;6.55;63.46
69780;BME280;57052;55.602;38.096;2022-10-16T01:53:16;101669.63;;;6.38;63.07
69780;BME280;57052;55.602;38.096;2022-10-16T01:55:45;101693.59;;;6.53;63.49
69780;BME280;57052;55.602;38.096;2022-10-16T01:58:13;101689.47;;;6.51;63.15
69780;BME280;57052;55.602;38.096;2022-10-16T02:00:42;101692.34;;;6.49;63.88
69780;BME280;57052;55.602;38.096;2022-10-16T02:03:11;101680.97;;;6.40;63.60
69780;BME280;57052;55.602;38.096;2022-10-16T02:05:57;101700.84;;;6.39;63.82
69780;BME280;57052;55.602;38.096;2022-10-16T02:08:26;101694.03;;;6.43;64.06
69780;BME280;57052;55.602;38.096;2022-10-16T02:10:55;101671.88;;;6.28;63.50
69780;BME280;57052;55.602;38.096;2022-10-16T02:13:29;101705.19;;;6.40;64.03
69780;BME280;57052;55.602;38.096;2022-10-16T02:15:56;101698.34;;;6.38;63.76
69780;BME280;57052;55.602;38.096;2022-10-16T02:18:22;101700.22;;;6.37;64.14
69780;BME280;57052;55.602;38.096;2022-10-16T02:20:57;101683.88;;;6.26;63.98
69780;BME280;57052;55.602;38.096;2022-10-16T02:26:04;101690.69;;;6.22;63.60
69780;BME280;57052;55.602;38.096;2022-10-16T02:28:41;101700.81;;;6.26;63.98
69780;BME280;57052;55.602;38.096;2022-10-16T02:31:10;101707.88;;;6.27;64.05
69780;BME280;57052;55.602;38.096;2022-10-16T02:33:39;101698.75;;;6.22;64.01
69780;BME280;57052;55.602;38.096;2022-10-16T02:36:05;101683.44;;;6.09;63.77
69780;BME280;57052;55.602;38.096;2022-10-16T02:38:32;101710.13;;;6.24;63.96
69780;BME280;57052;55.602;38.096;2022-10-16T02:40:57;101697.50;;;6.18;63.99
69780;BME280;57052;55.602;38.096;2022-10-16T02:43:24;101701.66;;;6.20;63.93
69780;BME280;57052;55.602;38.096;2022-10-16T02:45:50;101701.03;;;6.18;63.58
69780;BME280;57052;55.602;38.096;2022-10-16T02:48:16;101703.28;;;6.21;64.24
69780;BME280;57052;55.602;38.096;2022-10-16T02:50:41;101696.25;;;6.14;63.76
69780;BME280;57052;55.602;38.096;2022-10-16T02:53:07;101709.50;;;6.22;63.88
69780;BME280;57052;55.602;38.096;2022-10-16T02:55:32;101692.72;;;6.07;63.57
69780;BME280;57052;55.602;38.096;2022-10-16T02:57:58;101716.94;;;6.20;63.87
69780;BME280;57052;55.602;38.096;2022-10-16T03:00:23;101710.34;;;6.16;64.20
69780;BME280;57052;55.602;38.096;2022-10-16T03:02:49;101685.69;;;5.99;63.94
69780;BME280;57052;55.602;38.096;2022-10-16T03:05:15;101693.97;;;6.04;64.07
69780;BME280;57052;55.602;38.096;2022-10-16T03:07:41;101704.94;;;6.09;63.83
69780;BME280;57052;55.602;38.096;2022-10-16T03:10:07;101722.94;;;6.15;64.10
69780;BME280;57052;55.602;38.096;2022-10-16T03:12:33;101717.13;;;6.12;64.33
69780;BME280;57052;55.602;38.096;2022-10-16T03:14:58;101725.00;;;6.13;64.21
69780;BME280;57052;55.602;38.096;2022-10-16T03:17:24;101720.44;;;6.07;64.13
69780;BME280;57052;55.602;38.096;2022-10-16T03:19:50;101718.16;;;6.04;63.63
69780;BME280;57052;55.602;38.096;2022-10-16T03:22:16;101732.88;;;6.08;64.11
69780;BME280;57052;55.602;38.096;2022-10-16T03:24:42;101708.19;;;5.92;63.83
69780;BME280;57052;55.602;38.096;2022-10-16T03:27:07;101720.22;;;6.02;63.83
69780;BME280;57052;55.602;38.096;2022-10-16T03:29:33;101720.63;;;5.99;64.02
69780;BME280;57052;55.602;38.096;2022-10-16T03:31:59;101723.94;;;5.95;63.99
69780;BME280;57052;55.602;38.096;2022-10-16T03:34:24;101730.56;;;5.99;64.34
69780;BME280;57052;55.602;38.096;2022-10-16T03:36:51;101721.84;;;5.90;64.28
69780;BME280;57052;55.602;38.096;2022-10-16T03:39:16;101708.38;;;5.83;64.20
69780;BME280;57052;55.602;38.096;2022-10-16T03:41:42;101732.81;;;5.95;63.95
69780;BME280;57052;55.602;38.096;2022-10-16T03:44:07;101732.00;;;5.95;64.43
69780;BME280;57052;55.602;38.096;2022-10-16T03:46:33;101734.69;;;5.95;64.00
69780;BME280;57052;55.602;38.096;2022-10-16T03:48:58;101739.44;;;5.93;64.16
69780;BME280;57052;55.602;38.096;2022-10-16T03:51:24;101725.06;;;5.79;64.31
69780;BME280;57052;55.602;38.096;2022-10-16T03:53:50;101723.44;;;5.78;64.22
69780;BME280;57052;55.602;38.096;2022-10-16T03:56:15;101727.16;;;5.77;64.46
69780;BME280;57052;55.602;38.096;2022-10-16T03:58:41;101726.75;;;5.80;64.49
69780;BME280;57052;55.602;38.096;2022-10-16T04:01:06;101725.91;;;5.73;64.47
69780;BME280;57052;55.602;38.096;2022-10-16T04:03:32;101729.44;;;5.80;64.54
69780;BME280;57052;55.602;38.096;2022-10-16T04:05:58;101741.06;;;5.87;64.41
69780;BME280;57052;55.602;38.096;2022-10-16T04:08:23;101740.44;;;5.85;64.50
69780;BME280;57052;55.602;38.096;2022-10-16T04:10:49;101743.31;;;5.83;64.45
69780;BME280;57052;55.602;38.096;2022-10-16T04:13:14;101729.84;;;5.77;64.15
69780;BME280;57052;55.602;38.096;2022-10-16T04:15:40;101719.91;;;5.71;64.34
69780;BME280;57052;55.602;38.096;2022-10-16T04:18:06;101713.88;;;5.69;64.17
69780;BME280;57052;55.602;38.096;2022-10-16T04:20:32;101738.72;;;5.84;64.38
69780;BME280;57052;55.602;38.096;2022-10-16T04:22:58;101745.59;;;5.87;64.24
69780;BME280;57052;55.602;38.096;2022-10-16T04:25:23;101745.59;;;5.87;64.67
69780;BME280;57052;55.602;38.096;2022-10-16T04:27:49;101744.78;;;5.86;64.48
69780;BME280;57052;55.602;38.096;2022-10-16T04:30:14;101749.13;;;5.87;63.98
69780;BME280;57052;55.602;38.096;2022-10-16T04:32:40;101739.78;;;5.83;64.18
69780;BME280;57052;55.602;38.096;2022-10-16T04:35:06;101751.63;;;5.89;64.18
69780;BME280;57052;55.602;38.096;2022-10-16T04:37:32;101759.47;;;5.90;63.61
69780;BME280;57052;55.602;38.096;2022-10-16T04:39:57;101760.09;;;5.92;64.03
69780;BME280;57052;55.602;38.096;2022-10-16T04:42:23;101764.25;;;5.95;63.92
69780;BME280;57052;55.602;38.096;2022-10-16T04:44:49;101759.69;;;5.95;64.02
69780;BME280;57052;55.602;38.096;2022-10-16T04:47:14;101746.03;;;5.90;63.84
69780;BME280;57052;55.602;38.096;2022-10-16T04:49:40;101740.88;;;5.89;63.58
69780;BME280;57052;55.602;38.096;2022-10-16T04:52:05;101761.16;;;5.98;63.44
69780;BME280;57052;55.602;38.096;2022-10-16T04:54:31;101751.19;;;5.92;63.59
69780;BME280;57052;55.602;38.096;2022-10-16T04:56:57;101764.06;;;6.03;63.80
69780;BME280;57052;55.602;38.096;2022-10-16T04:59:23;101748.13;;;5.95;63.53
69780;BME280;57052;55.602;38.096;2022-10-16T05:01:49;101760.97;;;6.06;63.77
69780;BME280;57052;55.602;38.096;2022-10-16T05:04:14;101749.78;;;6.02;63.76
69780;BME280;57052;55.602;38.096;2022-10-16T05:06:41;101758.28;;;6.12;63.64
69780;BME280;57052;55.602;38.096;2022-10-16T05:09:07;101762.44;;;6.15;63.24
69780;BME280;57052;55.602;38.096;2022-10-16T05:11:33;101761.59;;;6.14;63.79
69780;BME280;57052;55.602;38.096;2022-10-16T05:13:59;101764.72;;;6.18;63.27
69780;BME280;57052;55.602;38.096;2022-10-16T05:16:25;101770.31;;;6.23;63.65
69780;BME280;57052;55.602;38.096;2022-10-16T05:18:53;101753.34;;;6.16;63.48
69780;BME280;57052;55.602;38.096;2022-10-16T05:21:19;101743.84;;;6.20;63.33
69780;BME280;57052;55.602;38.096;2022-10-16T05:23:45;101764.94;;;6.29;63.47
69780;BME280;57052;55.602;38.096;2022-10-16T05:26:10;101748.19;;;6.21;62.89
69780;BME280;57052;55.602;38.096;2022-10-16T05:28:36;101762.88;;;6.31;63.52
69780;BME280;57052;55.602;38.096;2022-10-16T05:31:09;101764.13;;;6.29;63.59
69780;BME280;57052;55.602;38.096;2022-10-16T05:33:34;101773.84;;;6.36;62.76
69780;BME280;57052;55.602;38.096;2022-10-16T05:36:04;101769.13;;;6.38;63.24
69780;BME280;57052;55.602;38.096;2022-10-16T05:38:31;101735.38;;;6.23;63.25
69780;BME280;57052;55.602;38.096;2022-10-16T05:40:56;101770.34;;;6.42;62.80
69780;BME280;57052;55.602;38.096;2022-10-16T05:43:22;101777.41;;;6.50;62.47
69780;BME280;57052;55.602;38.096;2022-10-16T05:46:02;101763.75;;;6.38;63.37
69780;BME280;57052;55.602;38.096;2022-10-16T05:48:28;101781.75;;;6.58;62.95
69780;BME280;57052;55.602;38.096;2022-10-16T05:50:59;101776.59;;;6.63;62.65
69780;BME280;57052;55.602;38.096;2022-10-16T05:53:27;101775.56;;;6.64;62.72
69780;BME280;57052;55.602;38.096;2022-10-16T05:55:53;101770.81;;;6.66;62.70
69780;BME280;57052;55.602;38.096;2022-10-16T05:58:19;101787.56;;;6.81;62.61
69780;BME280;57052;55.602;38.096;2022-10-16T06:00:45;101773.69;;;6.71;61.91
69780;BME280;57052;55.602;38.096;2022-10-16T06:03:17;101780.53;;;6.80;62.40
69780;BME280;57052;55.602;38.096;2022-10-16T06:05:43;101789.00;;;6.90;62.43
69780;BME280;57052;55.602;38.096;2022-10-16T06:08:08;101797.28;;;6.95;62.46
69780;BME280;57052;55.602;38.096;2022-10-16T06:10:34;101775.75;;;6.95;62.19
69780;BME280;57052;55.602;38.096;2022-10-16T06:12:59;101790.84;;;7.09;62.38
69780;BME280;57052;55.602;38.096;2022-10-16T06:15:25;101793.16;;;7.19;61.62
69780;BME280;57052;55.602;38.096;2022-10-16T06:17:51;101779.69;;;7.12;61.47
69780;BME280;57052;55.602;38.096;2022-10-16T06:20:16;101804.53;;;7.27;61.74
69780;BME280;57052;55.602;38.096;2022-10-16T06:22:42;101796.03;;;7.30;61.48
69780;BME280;57052;55.602;38.096;2022-10-16T06:25:07;101791.47;;;7.31;60.91
69780;BME280;57052;55.602;38.096;2022-10-16T06:27:33;101792.50;;;7.30;61.13
69780;BME280;57052;55.602;38.096;2022-10-16T06:29:58;101723.59;;;6.89;61.08
69780;BME280;57052;55.602;38.096;2022-10-16T06:32:24;101793.53;;;7.35;61.55
69780;BME280;57052;55.602;38.096;2022-10-16T06:34:49;101798.09;;;7.41;61.40
69780;BME280;57052;55.602;38.096;2022-10-16T06:37:15;101795.59;;;7.46;60.42
69780;BME280;57052;55.602;38.096;2022-10-16T06:39:40;101803.03;;;7.51;61.20
69780;BME280;57052;55.602;38.096;2022-10-16T06:42:06;101790.81;;;7.48;60.49
69780;BME280;57052;55.602;38.096;2022-10-16T06:44:31;101801.97;;;7.58;60.53
69780;BME280;57052;55.602;38.096;2022-10-16T06:46:57;101800.13;;;7.59;60.76
69780;BME280;57052;55.602;38.096;2022-10-16T06:49:22;101797.81;;;7.62;60.23
69780;BME280;57052;55.602;38.096;2022-10-16T06:51:48;101806.09;;;7.74;59.62
69780;BME280;57052;55.602;38.096;2022-10-16T06:54:15;101811.88;;;7.78;60.15
69780;BME280;57052;55.602;38.096;2022-10-16T06:56:40;101806.06;;;7.81;60.05
69780;BME280;57052;55.602;38.096;2022-10-16T06:59:06;101795.91;;;7.69;59.69
69780;BME280;57052;55.602;38.096;2022-10-16T07:01:32;101809.78;;;7.86;59.89
69780;BME280;57052;55.602;38.096;2022-10-16T07:03:58;101804.38;;;7.86;60.28
69780;BME280;57052;55.602;38.096;2022-10-16T07:06:25;101808.47;;;7.95;60.28
69780;BME280;57052;55.602;38.096;2022-10-16T07:08:52;101797.94;;;7.87;59.47
69780;BME280;57052;55.602;38.096;2022-10-16T07:11:20;101819.44;;;8.00;60.10
69780;BME280;57052;55.602;38.096;2022-10-16T07:13:47;101821.31;;;8.06;59.61
69780;BME280;57052;55.602;38.096;2022-10-16T07:16:14;101816.47;;;8.15;59.89
69780;BME280;57052;55.602;38.096;2022-10-16T07:18:40;101797.41;;;8.10;59.98
69780;BME280;57052;55.602;38.096;2022-10-16T07:21:19;101822.66;;;8.22;59.61
69780;BME280;57052;55.602;38.096;2022-10-16T07:24:19;101821.00;;;8.34;59.41
69780;BME280;57052;55.602;38.096;2022-10-16T07:26:38;101806.69;;;8.27;59.50
69780;BME280;57052;55.602;38.096;2022-10-16T07:29:14;101818.25;;;8.41;59.09
69780;BME280;57052;55.602;38.096;2022-10-16T07:31:40;101817.59;;;8.45;59.30
69780;BME280;57052;55.602;38.096;2022-10-16T07:34:07;101823.34;;;8.55;59.47
69780;BME280;57052;55.602;38.096;2022-10-16T07:36:32;101811.34;;;8.51;59.16
69780;BME280;57052;55.602;38.096;2022-10-16T07:38:58;101822.50;;;8.61;58.43
69780;BME280;57052;55.602;38.096;2022-10-16T07:41:23;101812.97;;;8.59;59.11
69780;BME280;57052;55.602;38.096;2022-10-16T07:43:51;101828.78;;;8.80;59.11
69780;BME280;57052;55.602;38.096;2022-10-16T07:46:18;101827.09;;;8.85;58.76
69780;BME280;57052;55.602;38.096;2022-10-16T07:48:44;101827.09;;;8.85;58.09
69780;BME280;57052;55.602;38.096;2022-10-16T07:51:14;101828.69;;;8.93;58.01
69780;BME280;57052;55.602;38.096;2022-10-16T07:53:40;101824.88;;;9.00;58.08
69780;BME280;57052;55.602;38.096;2022-10-16T07:56:07;101825.06;;;9.06;58.27
69780;BME280;57052;55.602;38.096;2022-10-16T07:58:34;101822.53;;;9.11;58.12
69780;BME280;57052;55.602;38.096;2022-10-16T08:01:10;101812.91;;;9.15;57.12
69780;BME280;57052;55.602;38.096;2022-10-16T08:03:37;101804.38;;;9.18;58.01
69780;BME280;57052;55.602;38.096;2022-10-16T08:06:03;101805.69;;;9.33;57.63
69780;BME280;57052;55.602;38.096;2022-10-16T08:08:29;101812.25;;;9.44;57.93
69780;BME280;57052;55.602;38.096;2022-10-16T08:10:55;101806.59;;;9.45;57.85
69780;BME280;57052;55.602;38.096;2022-10-16T08:13:21;101794.34;;;9.43;56.94
69780;BME280;57052;55.602;38.096;2022-10-16T08:15:47;101808.25;;;9.64;57.00
69780;BME280;57052;55.602;38.096;2022-10-16T08:18:14;101808.09;;;9.59;57.07
69780;BME280;57052;55.602;38.096;2022-10-16T08:20:41;101804.06;;;9.68;56.50
69780;BME280;57052;55.602;38.096;2022-10-16T08:23:07;101804.38;;;9.79;56.78
69780;BME280;57052;55.602;38.096;2022-10-16T08:25:35;101804.06;;;9.87;56.27
69780;BME280;57052;55.602;38.096;2022-10-16T08:28:04;101803.44;;;10.03;56.10
69780;BME280;57052;55.602;38.096;2022-10-16T08:30:30;101806.88;;;10.10;56.06
69780;BME280;57052;55.602;38.096;2022-10-16T08:32:55;101803.06;;;10.17;55.78
69780;BME280;57052;55.602;38.096;2022-10-16T08:35:21;101797.94;;;10.27;55.67
69780;BME280;57052;55.602;38.096;2022-10-16T08:37:47;101797.03;;;10.34;55.07
69780;BME280;57052;55.602;38.096;2022-10-16T08:40:25;101796.97;;;10.52;54.24
69780;BME280;57052;55.602;38.096;2022-10-16T08:46:17;101797.06;;;10.86;54.11
69780;BME280;57052;55.602;38.096;2022-10-16T08:48:55;101787.31;;;10.97;53.79
69780;BME280;57052;55.602;38.096;2022-10-16T08:51:24;101761.97;;;11.03;54.01
69780;BME280;57052;55.602;38.096;2022-10-16T08:56:22;101765.50;;;11.38;53.77
69780;BME280;57052;55.602;38.096;2022-10-16T08:58:49;101786.84;;;11.70;53.33
69780;BME280;57052;55.602;38.096;2022-10-16T09:01:16;101798.13;;;11.90;52.93
69780;BME280;57052;55.602;38.096;2022-10-16T09:06:48;101791.97;;;12.22;52.57
69780;BME280;57052;55.602;38.096;2022-10-16T09:09:25;101787.06;;;12.36;51.20
69780;BME280;57052;55.602;38.096;2022-10-16T09:15:07;101787.31;;;12.79;49.25
69780;BME280;57052;55.602;38.096;2022-10-16T09:20:49;101780.91;;;13.19;48.42
69780;BME280;57052;55.602;38.096;2022-10-16T09:23:19;101778.00;;;13.42;50.06
69780;BME280;57052;55.602;38.096;2022-10-16T09:25:49;101783.72;;;13.62;49.49
69780;BME280;57052;55.602;38.096;2022-10-16T09:28:16;101784.22;;;13.81;49.34
69780;BME280;57052;55.602;38.096;2022-10-16T09:30:43;101770.56;;;13.97;48.88
69780;BME280;57052;55.602;38.096;2022-10-16T09:33:10;101774.19;;;14.08;48.52
69780;BME280;57052;55.602;38.096;2022-10-16T09:38:06;101775.88;;;14.36;47.77
69780;BME280;57052;55.602;38.096;2022-10-16T09:40:35;101776.63;;;14.53;46.23
69780;BME280;57052;55.602;38.096;2022-10-16T09:43:28;101777.56;;;14.68;43.41
69780;BME280;57052;55.602;38.096;2022-10-16T09:46:08;101777.47;;;14.85;43.37
69780;BME280;57052;55.602;38.096;2022-10-16T09:51:03;101764.91;;;15.21;45.23
69780;BME280;57052;55.602;38.096;2022-10-16T09:53:44;101763.88;;;15.32;42.13
69780;BME280;57052;55.602;38.096;2022-10-16T09:56:20;101762.66;;;15.50;44.61
69780;BME280;57052;55.602;38.096;2022-10-16T09:58:54;101768.16;;;15.55;42.39
69780;BME280;57052;55.602;38.096;2022-10-16T10:01:21;101765.19;;;15.66;44.25
69780;BME280;57052;55.602;38.096;2022-10-16T10:03:48;101744.38;;;15.50;44.16
69780;BME280;57052;55.602;38.096;2022-10-16T10:06:26;101763.28;;;15.67;40.23
69780;BME280;57052;55.602;38.096;2022-10-16T10:11:38;101724.09;;;15.41;40.10
69780;BME280;57052;55.602;38.096;2022-10-16T10:14:06;101750.44;;;15.62;42.68
69780;BME280;57052;55.602;38.096;2022-10-16T10:16:34;101758.41;;;15.79;42.92
69780;BME280;57052;55.602;38.096;2022-10-16T10:19:00;101741.78;;;15.75;42.41
69780;BME280;57052;55.602;38.096;2022-10-16T10:21:26;101760.94;;;15.90;42.48
69780;BME280;57052;55.602;38.096;2022-10-16T10:23:55;101770.19;;;15.84;40.42
69780;BME280;57052;55.602;38.096;2022-10-16T10:26:24;101755.19;;;15.87;41.16
69780;BME280;57052;55.602;38.096;2022-10-16T10:31:33;101760.66;;;15.87;39.27
69780;BME280;57052;55.602;38.096;2022-10-16T10:40:19;101751.38;;;15.41;38.76
69780;BME280;57052;55.602;38.096;2022-10-16T10:45:28;101752.66;;;15.28;41.49
69780;BME280;57052;55.602;38.096;2022-10-16T10:51:12;101752.84;;;15.12;39.89
69780;BME280;57052;55.602;38.096;2022-10-16T10:56:47;101743.22;;;14.99;39.13
69780;BME280;57052;55.602;38.096;2022-10-16T11:07:44;101723.19;;;14.84;40.89
69780;BME280;57052;55.602;38.096;2022-10-16T11:10:18;101738.50;;;14.90;39.69
69780;BME280;57052;55.602;38.096;2022-10-16T11:12:49;101733.56;;;14.87;40.85
69780;BME280;57052;55.602;38.096;2022-10-16T11:15:29;101726.78;;;14.89;39.83
69780;BME280;57052;55.602;38.096;2022-10-16T11:18:06;101735.81;;;14.95;40.40
69780;BME280;57052;55.602;38.096;2022-10-16T11:21:04;101730.00;;;14.86;38.73
69780;BME280;57052;55.602;38.096;2022-10-16T11:23:36;101726.78;;;14.89;40.36
69780;BME280;57052;55.602;38.096;2022-10-16T11:26:15;101722.38;;;14.88;40.17
69780;BME280;57052;55.602;38.096;2022-10-16T11:28:48;101701.00;;;14.70;39.96
69780;BME280;57052;55.602;38.096;2022-10-16T11:34:27;101722.81;;;14.70;39.12
69780;BME280;57052;55.602;38.096;2022-10-16T11:37:04;101702.31;;;14.62;40.02
69780;BME280;57052;55.602;38.096;2022-10-16T11:39:33;101711.09;;;14.69;42.04
69780;BME280;57052;55.602;38.096;2022-10-16T11:42:22;101686.72;;;14.53;40.13
69780;BME280;57052;55.602;38.096;2022-10-16T11:55:21;101690.47;;;14.20;41.09
69780;BME280;57052;55.602;38.096;2022-10-16T11:57:59;101682.75;;;14.12;39.60
69780;BME280;57052;55.602;38.096;2022-10-16T12:00:51;101713.09;;;14.26;40.31
69780;BME280;57052;55.602;38.096;2022-10-16T12:03:31;101698.97;;;14.29;40.88
69780;BME280;57052;55.602;38.096;2022-10-16T12:08:45;101704.50;;;14.34;42.11
69780;BME280;57052;55.602;38.096;2022-10-16T12:11:34;101708.31;;;14.33;39.93
69780;BME280;57052;55.602;38.096;2022-10-16T12:19:18;101701.97;;;14.27;42.20
69780;BME280;57052;55.602;38.096;2022-10-16T12:21:44;101691.91;;;14.28;41.80
69780;BME280;57052;55.602;38.096;2022-10-16T12:24:36;101699.16;;;14.17;40.59
69780;BME280;57052;55.602;38.096;2022-10-16T12:27:19;101691.25;;;14.21;41.96
69780;BME280;57052;55.602;38.096;2022-10-16T12:29:47;101690.75;;;14.24;42.04
69780;BME280;57052;55.602;38.096;2022-10-16T12:32:29;101686.59;;;14.16;40.50
69780;BME280;57052;55.602;38.096;2022-10-16T12:34:55;101690.56;;;14.03;40.55
69780;BME280;57052;55.602;38.096;2022-10-16T12:37:24;101683.81;;;14.11;41.79
69780;BME280;57052;55.602;38.096;2022-10-16T12:39:52;101684.19;;;14.20;42.14
69780;BME280;57052;55.602;38.096;2022-10-16T12:42:30;101698.09;;;14.23;41.32
69780;BME280;57052;55.602;38.096;2022-10-16T12:44:56;101685.81;;;14.21;42.52
69780;BME280;57052;55.602;38.096;2022-10-16T12:50:41;101690.72;;;14.19;41.22
69780;BME280;57052;55.602;38.096;2022-10-16T12:53:25;101684.59;;;14.06;41.24
69780;BME280;57052;55.602;38.096;2022-10-16T12:56:22;101679.63;;;13.98;41.27
69780;BME280;57052;55.602;38.096;2022-10-16T13:01:37;101680.13;;;13.95;41.15
69780;BME280;57052;55.602;38.096;2022-10-16T13:10:14;101684.34;;;13.81;41.38
69780;BME280;57052;55.602;38.096;2022-10-16T13:13:00;101679.16;;;13.80;41.91
69780;BME280;57052;55.602;38.096;2022-10-16T13:18:17;101688.59;;;13.72;42.82
69780;BME280;57052;55.602;38.096;2022-10-16T13:26:09;101665.75;;;13.52;42.66
69780;BME280;57052;55.602;38.096;2022-10-16T13:28:41;101678.16;;;13.64;43.14
69780;BME280;57052;55.602;38.096;2022-10-16T13:31:15;101687.66;;;13.62;43.05
69780;BME280;57052;55.602;38.096;2022-10-16T13:33:46;101661.59;;;13.44;42.97
69780;BME280;57052;55.602;38.096;2022-10-16T13:36:43;101681.69;;;13.43;42.47
69780;BME280;57052;55.602;38.096;2022-10-16T13:39:24;101666.34;;;13.32;42.37
69780;BME280;57052;55.602;38.096;2022-10-16T13:42:24;101679.66;;;13.33;42.94
69780;BME280;57052;55.602;38.096;2022-10-16T13:44:53;101659.94;;;13.21;43.93
69780;BME280;57052;55.602;38.096;2022-10-16T13:47:24;101689.09;;;13.26;43.87
69780;BME280;57052;55.602;38.096;2022-10-16T13:50:04;101684.84;;;13.13;43.19
69780;BME280;57052;55.602;38.096;2022-10-16T13:52:31;101686.28;;;13.21;44.18
69780;BME280;57052;55.602;38.096;2022-10-16T13:54:57;101684.06;;;13.18;44.57
69780;BME280;57052;55.602;38.096;2022-10-16T13:57:24;101681.63;;;13.16;44.19
69780;BME280;57052;55.602;38.096;2022-10-16T13:59:50;101654.94;;;12.97;44.21
69780;BME280;57052;55.602;38.096;2022-10-16T14:02:29;101640.00;;;12.77;44.12
69780;BME280;57052;55.602;38.096;2022-10-16T14:04:57;101682.31;;;13.07;44.53
69780;BME280;57052;55.602;38.096;2022-10-16T14:07:25;101680.53;;;13.01;44.67
69780;BME280;57052;55.602;38.096;2022-10-16T14:09:53;101681.38;;;13.01;44.86
69780;BME280;57052;55.602;38.096;2022-10-16T14:12:20;101685.91;;;12.96;44.96
69780;BME280;57052;55.602;38.096;2022-10-16T14:14:50;101686.91;;;12.90;44.86
69780;BME280;57052;55.602;38.096;2022-10-16T14:17:20;101687.97;;;12.88;45.01
69780;BME280;57052;55.602;38.096;2022-10-16T14:19:52;101678.34;;;12.81;44.96
69780;BME280;57052;55.602;38.096;2022-10-16T14:22:39;101682.56;;;12.72;44.58
69780;BME280;57052;55.602;38.096;2022-10-16T14:28:17;101685.38;;;12.60;45.15
69780;BME280;57052;55.602;38.096;2022-10-16T14:30:51;101682.16;;;12.63;45.71
69780;BME280;57052;55.602;38.096;2022-10-16T14:33:31;101667.28;;;12.49;45.80
69780;BME280;57052;55.602;38.096;2022-10-16T14:36:26;101686.44;;;12.43;45.68
69780;BME280;57052;55.602;38.096;2022-10-16T14:39:13;101680.69;;;12.39;46.23